createdAt,value
2022-10-13T00:01:10.895Z,5.07
2022-10-13T00:03:41.299Z,6.10
2022-10-13T00:06:10.874Z,10.30
2022-10-13T00:08:38.479Z,13.77
2022-10-13T00:14:15.436Z,6.68
2022-10-13T00:16:47.652Z,9.90
2022-10-13T00:19:16.382Z,8.43
2022-10-13T00:24:35.215Z,5.38
2022-10-13T00:27:02.027Z,4.88
2022-10-13T00:29:28.590Z,5.60
2022-10-13T00:31:55.113Z,5.88
2022-10-13T00:34:22.686Z,5.75
2022-10-13T00:36:49.282Z,5.80
2022-10-13T00:39:19.580Z,6.07
2022-10-13T00:41:46.205Z,7.03
2022-10-13T00:44:56.607Z,6.00
2022-10-13T00:47:27.540Z,6.25
2022-10-13T00:49:57.348Z,10.70
2022-10-13T00:52:25.365Z,7.57
2022-10-13T00:54:55.423Z,9.77
2022-10-13T00:57:27.645Z,8.88
2022-10-13T00:59:54.226Z,8.75
2022-10-13T01:02:27.058Z,7.93
2022-10-13T01:04:56.562Z,7.78
2022-10-13T01:07:23.843Z,6.43
2022-10-13T01:09:53.756Z,5.68
2022-10-13T01:12:36.769Z,5.70
2022-10-13T01:17:51.776Z,7.80
2022-10-13T01:20:48.334Z,5.07
2022-10-13T01:23:34.118Z,5.50
2022-10-13T01:26:22.685Z,4.85
2022-10-13T01:29:28.716Z,4.88
2022-10-13T01:32:44.467Z,4.93
2022-10-13T01:35:19.934Z,4.80
2022-10-13T01:37:59.505Z,5.40
2022-10-13T01:40:37.939Z,5.88
2022-10-13T01:43:45.045Z,5.93
2022-10-13T01:46:17.873Z,5.90
2022-10-13T01:48:45.525Z,5.18
2022-10-13T01:51:20.416Z,5.63
2022-10-13T01:53:52.991Z,5.07
2022-10-13T01:56:19.758Z,5.18
2022-10-13T01:58:49.129Z,5.95
2022-10-13T02:01:33.798Z,5.50
2022-10-13T02:04:32.863Z,6.05
2022-10-13T02:07:06.830Z,6.78
2022-10-13T02:10:16.794Z,6.72
2022-10-13T02:12:56.590Z,7.18
2022-10-13T02:15:46.311Z,7.35
2022-10-13T02:18:27.482Z,6.32
2022-10-13T02:20:57.400Z,7.28
2022-10-13T02:23:26.842Z,6.07
2022-10-13T02:25:56.820Z,6.22
2022-10-13T02:28:24.810Z,6.05
2022-10-13T02:30:51.778Z,5.68
2022-10-13T02:33:18.387Z,6.07
2022-10-13T02:35:46.107Z,6.05
2022-10-13T02:38:15.229Z,6.00
2022-10-13T02:40:41.823Z,5.38
2022-10-13T02:43:08.393Z,5.53
2022-10-13T02:45:38.209Z,5.93
2022-10-13T02:48:07.021Z,5.38
2022-10-13T02:50:34.057Z,5.57
2022-10-13T02:53:00.704Z,5.38
2022-10-13T02:55:27.442Z,5.57
2022-10-13T02:57:56.209Z,5.38
2022-10-13T03:00:22.919Z,5.82
2022-10-13T03:02:55.592Z,6.03
2022-10-13T03:07:50.934Z,5.97
2022-10-13T03:10:18.667Z,5.95
2022-10-13T03:12:45.909Z,4.95
2022-10-13T03:15:12.744Z,5.60
2022-10-13T03:17:41.867Z,5.75
2022-10-13T03:20:09.194Z,5.25
2022-10-13T03:22:37.943Z,5.43
2022-10-13T03:25:05.176Z,5.93
2022-10-13T03:27:35.322Z,4.78
2022-10-13T03:30:06.064Z,5.20
2022-10-13T03:32:34.335Z,5.95
2022-10-13T03:35:00.911Z,5.07
2022-10-13T03:37:29.967Z,5.10
2022-10-13T03:40:00.903Z,5.43
2022-10-13T03:42:30.949Z,5.30
2022-10-13T03:44:57.510Z,5.80
2022-10-13T03:47:26.213Z,5.00
2022-10-13T03:49:56.461Z,5.45
2022-10-13T03:52:23.311Z,4.97
2022-10-13T03:54:49.842Z,5.15
2022-10-13T03:57:16.634Z,4.72
2022-10-13T03:59:43.240Z,5.40
2022-10-13T04:02:12.691Z,5.03
2022-10-13T04:04:41.787Z,4.85
2022-10-13T04:07:08.418Z,4.97
2022-10-13T04:09:36.157Z,5.10
2022-10-13T04:12:03.042Z,4.53
2022-10-13T04:14:29.680Z,5.32
2022-10-13T04:17:27.529Z,4.60
2022-10-13T04:19:58.258Z,5.60
2022-10-13T04:22:26.987Z,5.85
2022-10-13T04:24:53.551Z,6.15
2022-10-13T04:27:23.602Z,6.25
2022-10-13T04:29:51.337Z,6.22
2022-10-13T04:32:21.276Z,6.45
2022-10-13T04:34:53.089Z,6.53
2022-10-13T04:37:19.922Z,6.00
2022-10-13T04:39:47.735Z,6.47
2022-10-13T04:42:14.327Z,6.50
2022-10-13T04:44:41.188Z,6.00
2022-10-13T04:47:11.493Z,5.60
2022-10-13T04:49:44.054Z,6.65
2022-10-13T04:52:10.970Z,5.95
2022-10-13T04:54:37.628Z,5.25
2022-10-13T04:57:05.368Z,5.38
2022-10-13T04:59:31.886Z,6.03
2022-10-13T05:02:24.040Z,7.10
2022-10-13T05:04:50.733Z,6.97
2022-10-13T05:07:19.149Z,5.97
2022-10-13T05:09:46.561Z,5.57
2022-10-13T05:12:13.318Z,5.60
2022-10-13T05:14:39.924Z,5.53
2022-10-13T05:17:09.529Z,6.00
2022-10-13T05:19:41.013Z,5.65
2022-10-13T05:22:07.642Z,5.75
2022-10-13T05:24:38.119Z,5.40
2022-10-13T05:27:12.783Z,5.15
2022-10-13T05:29:39.938Z,5.82
2022-10-13T05:32:09.428Z,6.35
2022-10-13T05:34:40.071Z,5.97
2022-10-13T05:37:06.736Z,7.30
2022-10-13T05:39:37.438Z,6.65
2022-10-13T05:42:05.516Z,6.40
2022-10-13T05:44:32.246Z,7.18
2022-10-13T05:47:04.998Z,6.03
2022-10-13T06:01:51.731Z,6.40
2022-10-13T06:04:25.385Z,7.40
2022-10-13T06:06:52.114Z,5.35
2022-10-13T06:09:22.542Z,7.10
2022-10-13T06:14:48.786Z,6.60
2022-10-13T06:17:18.844Z,6.50
2022-10-13T06:19:48.253Z,6.82
2022-10-13T06:22:25.929Z,6.97
2022-10-13T06:24:53.826Z,6.97
2022-10-13T06:27:52.162Z,6.53
2022-10-13T06:30:18.997Z,7.38
2022-10-13T06:32:51.221Z,6.60
2022-10-13T06:35:23.378Z,5.25
2022-10-13T06:37:52.484Z,6.15
2022-10-13T06:40:25.563Z,6.75
2022-10-13T06:42:53.547Z,7.32
2022-10-13T06:45:22.797Z,6.70
2022-10-13T06:47:57.422Z,6.85
2022-10-13T06:50:26.876Z,6.10
2022-10-13T06:52:55.832Z,7.15
2022-10-13T06:55:22.720Z,7.53
2022-10-13T06:57:54.245Z,9.10
2022-10-13T07:00:21.163Z,10.55
2022-10-13T07:02:51.792Z,10.13
2022-10-13T07:05:19.084Z,8.13
2022-10-13T07:07:51.507Z,6.38
2022-10-13T07:10:18.222Z,6.93
2022-10-13T07:12:45.247Z,7.35
2022-10-13T07:15:14.219Z,6.95
2022-10-13T07:17:44.368Z,7.80
2022-10-13T07:20:12.207Z,9.20
2022-10-13T07:22:40.386Z,8.75
2022-10-13T07:25:08.352Z,9.07
2022-10-13T07:27:44.507Z,8.20
2022-10-13T07:30:12.085Z,8.55
2022-10-13T07:32:42.238Z,10.02
2022-10-13T07:35:59.263Z,10.55
2022-10-13T07:38:26.078Z,16.40
2022-10-13T07:40:55.353Z,14.32
2022-10-13T07:43:23.605Z,9.65
2022-10-13T07:45:53.021Z,9.27
2022-10-13T07:48:24.282Z,7.57
2022-10-13T07:50:54.304Z,7.75
2022-10-13T07:53:26.050Z,6.93
2022-10-13T07:55:53.700Z,7.43
2022-10-13T07:58:23.037Z,7.32
2022-10-13T08:01:01.561Z,7.20
2022-10-13T08:03:33.070Z,7.47
2022-10-13T08:06:01.083Z,7.22
2022-10-13T08:08:28.019Z,7.88
2022-10-13T08:11:12.349Z,6.88
2022-10-13T08:13:55.344Z,7.88
2022-10-13T08:16:22.212Z,9.70
2022-10-13T08:22:13.797Z,9.20
2022-10-13T08:24:43.312Z,11.48
2022-10-13T08:27:19.748Z,8.95
2022-10-13T08:29:57.820Z,7.68
2022-10-13T08:32:56.380Z,8.38
2022-10-13T08:35:34.800Z,7.80
2022-10-13T08:38:08.492Z,7.07
2022-10-13T08:40:36.456Z,7.97
2022-10-13T08:43:15.772Z,8.27
2022-10-13T08:45:45.325Z,7.78
2022-10-13T08:48:25.404Z,7.50
2022-10-13T08:50:59.097Z,7.03
2022-10-13T08:53:45.705Z,7.35
2022-10-13T08:56:34.146Z,6.85
2022-10-13T08:59:05.376Z,6.70
2022-10-13T09:01:38.485Z,7.25
2022-10-13T09:04:27.773Z,6.22
2022-10-13T09:07:15.176Z,6.40
2022-10-13T09:09:42.638Z,7.03
2022-10-13T09:12:12.939Z,6.63
2022-10-13T09:14:41.785Z,7.13
2022-10-13T09:17:20.897Z,6.18
2022-10-13T09:20:19.310Z,5.88
2022-10-13T09:23:07.034Z,6.15
2022-10-13T09:25:43.610Z,6.55
2022-10-13T09:28:29.578Z,5.90
2022-10-13T09:31:19.113Z,6.75
2022-10-13T09:33:47.903Z,6.82
2022-10-13T09:36:17.734Z,8.45
2022-10-13T09:39:11.171Z,8.35
2022-10-13T09:41:40.987Z,8.43
2022-10-13T09:44:13.325Z,8.40
2022-10-13T09:46:56.639Z,8.55
2022-10-13T09:49:37.965Z,9.45
2022-10-13T09:52:29.383Z,8.60
2022-10-13T09:55:03.814Z,9.32
2022-10-13T09:57:37.264Z,9.20
2022-10-13T10:00:39.140Z,8.88
2022-10-13T10:03:13.766Z,10.63
2022-10-13T10:06:28.037Z,10.73
2022-10-13T10:09:45.093Z,9.02
2022-10-13T10:12:27.884Z,10.23
2022-10-13T10:15:22.408Z,9.63
2022-10-13T10:18:07.520Z,9.82
2022-10-13T10:20:55.516Z,9.88
2022-10-13T10:23:54.773Z,9.30
2022-10-13T10:26:43.285Z,8.93
2022-10-13T10:29:36.556Z,9.00
2022-10-13T10:32:36.367Z,9.20
2022-10-13T10:35:20.339Z,9.63
2022-10-13T10:38:36.029Z,9.18
2022-10-13T10:41:32.799Z,9.43
2022-10-13T10:44:35.580Z,9.85
2022-10-13T10:47:30.885Z,8.63
2022-10-13T10:50:07.756Z,9.88
2022-10-13T10:52:43.400Z,10.57
2022-10-13T10:55:47.809Z,10.45
2022-10-13T10:58:38.652Z,9.10
2022-10-13T11:01:29.695Z,9.13
2022-10-13T11:05:07.675Z,10.38
2022-10-13T11:07:53.952Z,8.63
2022-10-13T11:10:22.359Z,9.05
2022-10-13T11:12:58.910Z,10.55
2022-10-13T11:15:53.390Z,9.20
2022-10-13T11:18:55.525Z,10.40
2022-10-13T11:21:52.203Z,8.63
2022-10-13T11:24:39.087Z,9.40
2022-10-13T11:27:14.199Z,9.52
2022-10-13T11:29:44.302Z,9.57
2022-10-13T11:32:29.694Z,10.20
2022-10-13T11:35:05.454Z,9.75
2022-10-13T11:38:17.729Z,9.30
2022-10-13T11:41:26.386Z,10.40
2022-10-13T11:44:07.262Z,9.35
2022-10-13T11:46:36.909Z,9.82
2022-10-13T11:49:23.310Z,9.55
2022-10-13T11:52:22.816Z,9.10
2022-10-13T11:55:22.181Z,9.23
2022-10-13T11:58:16.063Z,8.90
2022-10-13T12:01:03.622Z,9.18
2022-10-13T12:03:39.566Z,8.38
2022-10-13T12:06:34.553Z,8.25
2022-10-13T12:09:18.728Z,8.13
2022-10-13T12:11:46.045Z,7.20
2022-10-13T12:14:40.161Z,6.60
2022-10-13T12:17:27.578Z,7.10
2022-10-13T12:20:29.515Z,6.68
2022-10-13T12:22:56.926Z,7.05
2022-10-13T12:25:30.092Z,6.65
2022-10-13T12:28:01.980Z,7.50
2022-10-13T12:31:00.169Z,7.40
2022-10-13T12:33:38.207Z,6.85
2022-10-13T12:36:26.973Z,7.40
2022-10-13T12:39:10.118Z,6.50
2022-10-13T12:41:45.548Z,7.88
2022-10-13T12:47:50.743Z,6.72
2022-10-13T12:50:26.822Z,7.30
2022-10-13T12:53:48.147Z,8.15
2022-10-13T12:56:28.959Z,8.20
2022-10-13T12:58:57.213Z,7.22
2022-10-13T13:01:29.479Z,7.50
2022-10-13T13:04:47.699Z,7.10
2022-10-13T13:08:07.153Z,7.72
2022-10-13T13:11:11.458Z,7.35
2022-10-13T13:13:42.231Z,7.18
2022-10-13T13:16:21.422Z,7.05
2022-10-13T13:18:50.643Z,8.00
2022-10-13T13:21:28.656Z,8.52
2022-10-13T13:24:07.468Z,8.15
2022-10-13T13:27:40.493Z,7.82
2022-10-13T13:30:15.427Z,7.20
2022-10-13T13:32:42.113Z,7.70
2022-10-13T13:35:09.900Z,8.07
2022-10-13T13:38:00.531Z,8.02
2022-10-13T13:40:35.560Z,7.28
2022-10-13T13:43:14.186Z,7.32
2022-10-13T13:45:40.965Z,7.05
2022-10-13T13:48:11.478Z,8.60
2022-10-13T13:50:41.774Z,8.60
2022-10-13T13:53:13.606Z,7.68
2022-10-13T13:55:42.027Z,8.50
2022-10-13T13:58:09.826Z,8.43
2022-10-13T14:00:40.923Z,8.45
2022-10-13T14:03:19.231Z,8.55
2022-10-13T14:05:52.778Z,8.35
2022-10-13T14:08:44.286Z,7.72
2022-10-13T14:11:12.686Z,7.82
2022-10-13T14:14:09.361Z,7.03
2022-10-13T14:16:37.329Z,7.50
2022-10-13T14:19:13.444Z,6.85
2022-10-13T14:21:51.434Z,7.43
2022-10-13T14:24:19.426Z,7.55
2022-10-13T14:27:03.971Z,7.60
2022-10-13T14:29:31.519Z,8.27
2022-10-13T14:32:53.528Z,8.82
2022-10-13T14:43:59.852Z,8.35
2022-10-13T14:46:26.947Z,7.22
2022-10-13T14:49:02.331Z,6.80
2022-10-13T14:51:59.320Z,7.20
2022-10-13T14:54:52.982Z,7.45
2022-10-13T15:00:11.566Z,7.20
2022-10-13T15:02:38.349Z,8.05
2022-10-13T15:05:05.683Z,6.65
2022-10-13T15:07:41.448Z,7.43
2022-10-13T15:10:08.503Z,6.68
2022-10-13T15:12:41.890Z,7.43
2022-10-13T15:15:10.021Z,6.95
2022-10-13T15:17:37.852Z,7.40
2022-10-13T15:20:08.332Z,6.95
2022-10-13T15:22:37.321Z,7.80
2022-10-13T15:25:09.606Z,7.82
2022-10-13T15:27:42.090Z,6.97
2022-10-13T15:30:13.315Z,6.80
2022-10-13T15:32:41.753Z,7.50
2022-10-13T15:35:11.503Z,7.45
2022-10-13T15:37:43.789Z,7.93
2022-10-13T15:40:12.092Z,7.57
2022-10-13T15:42:38.839Z,7.35
2022-10-13T15:45:10.921Z,7.10
2022-10-13T15:47:38.766Z,7.80
2022-10-13T15:50:05.902Z,7.18
2022-10-13T15:52:37.898Z,8.80
2022-10-13T15:55:11.227Z,7.55
2022-10-13T15:57:38.553Z,7.40
2022-10-13T16:00:06.709Z,8.35
2022-10-13T16:02:42.300Z,7.85
2022-10-13T16:05:12.372Z,8.25
2022-10-13T16:07:40.007Z,8.35
2022-10-13T16:10:13.067Z,8.05
2022-10-13T16:12:46.859Z,7.95
2022-10-13T16:15:17.486Z,8.50
2022-10-13T16:17:45.623Z,8.60
2022-10-13T16:20:12.764Z,8.73
2022-10-13T16:22:39.547Z,8.90
2022-10-13T16:25:06.979Z,8.82
2022-10-13T16:27:33.667Z,8.55
2022-10-13T16:30:05.874Z,9.30
2022-10-13T16:32:39.484Z,9.40
2022-10-13T16:35:06.897Z,9.73
2022-10-13T16:37:39.897Z,9.68
2022-10-13T16:40:07.102Z,10.05
2022-10-13T16:42:35.264Z,9.20
2022-10-13T16:45:07.437Z,8.25
2022-10-13T16:47:37.709Z,7.90
2022-10-13T16:50:09.074Z,9.05
2022-10-13T16:52:36.723Z,8.80
2022-10-13T16:55:05.036Z,8.00
2022-10-13T16:57:32.262Z,10.23
2022-10-13T17:00:05.126Z,11.68
2022-10-13T17:02:34.802Z,10.27
2022-10-13T17:05:06.912Z,10.52
2022-10-13T17:07:33.675Z,10.90
2022-10-13T17:10:02.364Z,8.30
2022-10-13T17:12:32.125Z,8.57
2022-10-13T17:14:59.992Z,9.63
2022-10-13T17:17:29.275Z,8.75
2022-10-13T17:19:56.085Z,8.85
2022-10-13T17:22:24.769Z,8.50
2022-10-13T17:24:53.702Z,10.35
2022-10-13T17:27:21.312Z,10.82
2022-10-13T17:29:53.971Z,10.15
2022-10-13T17:34:48.284Z,9.05
2022-10-13T17:37:15.863Z,12.15
2022-10-13T17:39:42.731Z,13.07
2022-10-13T17:42:12.225Z,13.65
2022-10-13T17:44:40.141Z,16.95
2022-10-13T17:47:08.426Z,15.80
2022-10-13T17:49:37.660Z,14.05
2022-10-13T17:52:09.386Z,12.52
2022-10-13T17:54:36.456Z,11.48
2022-10-13T17:57:06.239Z,10.13
2022-10-13T17:59:34.166Z,9.15
2022-10-13T18:02:00.975Z,8.70
2022-10-13T18:04:29.119Z,9.38
2022-10-13T18:19:08.505Z,10.60
2022-10-13T18:21:35.368Z,11.88
2022-10-13T18:24:05.524Z,11.32
2022-10-13T18:29:10.392Z,14.10
2022-10-13T18:31:44.160Z,15.05
2022-10-13T18:34:14.671Z,12.35
2022-10-13T18:36:47.376Z,11.50
2022-10-13T18:39:19.719Z,11.18
2022-10-13T18:41:49.127Z,10.95
2022-10-13T18:44:16.788Z,9.23
2022-10-13T18:46:49.774Z,14.52
2022-10-13T18:49:22.366Z,11.07
2022-10-13T18:54:18.578Z,8.50
2022-10-13T18:56:48.568Z,8.57
2022-10-13T18:59:17.084Z,10.13
2022-10-13T19:01:43.881Z,9.63
2022-10-13T19:04:15.464Z,8.63
2022-10-13T19:06:45.597Z,8.70
2022-10-13T19:09:14.524Z,7.70
2022-10-13T19:11:44.055Z,7.68
2022-10-13T19:14:13.188Z,8.90
2022-10-13T19:16:41.451Z,8.20
2022-10-13T19:19:08.666Z,8.07
2022-10-13T19:21:44.174Z,8.68
2022-10-13T19:24:11.596Z,8.80
2022-10-13T19:26:38.649Z,10.48
2022-10-13T19:29:08.962Z,8.38
2022-10-13T19:31:39.924Z,7.93
2022-10-13T19:42:29.661Z,8.32
2022-10-13T19:57:37.509Z,6.75
2022-10-13T20:00:06.997Z,6.72
2022-10-13T20:05:42.596Z,7.07
2022-10-13T20:08:11.039Z,7.10
2022-10-13T20:10:42.514Z,6.65
2022-10-13T20:19:18.659Z,7.00
2022-10-13T20:21:47.410Z,6.63
2022-10-13T20:24:15.176Z,7.85
2022-10-13T20:26:43.116Z,8.27
2022-10-13T20:29:10.302Z,7.18
2022-10-13T20:31:37.358Z,7.25
2022-10-13T20:34:09.667Z,7.57
2022-10-13T20:36:39.440Z,6.93
2022-10-13T20:39:08.176Z,6.60
2022-10-13T20:44:31.613Z,6.85
2022-10-13T20:46:58.372Z,6.22
2022-10-13T20:52:10.560Z,7.10
2022-10-13T20:54:37.252Z,6.43
2022-10-13T20:57:04.370Z,6.05
2022-10-13T20:59:31.012Z,6.05
2022-10-13T21:04:46.863Z,7.18
2022-10-13T21:07:13.571Z,8.93
2022-10-13T21:12:53.502Z,9.20
2022-10-13T21:15:20.280Z,8.10
2022-10-13T21:24:00.916Z,10.30
2022-10-13T21:26:31.351Z,10.90
2022-10-13T21:34:59.681Z,8.85
2022-10-13T21:49:10.800Z,9.73
2022-10-13T21:51:39.646Z,9.38
2022-10-13T21:54:12.014Z,9.60
2022-10-13T21:59:35.697Z,9.57
2022-10-13T22:02:02.392Z,9.55
2022-10-13T22:04:29.133Z,9.15
2022-10-13T22:06:55.807Z,8.57
2022-10-13T22:09:24.755Z,9.48
2022-10-13T22:11:56.436Z,9.27
2022-10-13T22:14:23.559Z,9.32
2022-10-13T22:17:15.563Z,9.13
2022-10-13T22:19:45.799Z,9.10
2022-10-13T22:22:15.268Z,8.32
2022-10-13T22:25:06.503Z,8.30
2022-10-13T22:27:37.743Z,9.63
2022-10-13T22:30:07.557Z,8.60
2022-10-13T22:32:35.425Z,9.07
2022-10-13T22:49:52.793Z,8.43
2022-10-13T22:52:23.525Z,8.70
2022-10-13T22:57:54.909Z,9.30
2022-10-13T23:00:21.599Z,9.38
2022-10-13T23:02:48.697Z,9.77
2022-10-13T23:08:13.070Z,9.32
2022-10-13T23:10:39.757Z,8.93
2022-10-13T23:13:10.263Z,9.05
2022-10-13T23:15:53.328Z,9.27
2022-10-13T23:27:33.843Z,7.38
2022-10-13T23:30:02.639Z,7.00
2022-10-13T23:32:29.412Z,8.73
2022-10-13T23:34:59.638Z,9.35
2022-10-13T23:37:32.104Z,18.73
2022-10-13T23:39:58.760Z,9.82
2022-10-13T23:42:26.252Z,9.88
2022-10-13T23:44:56.119Z,9.27
2022-10-13T23:47:25.875Z,9.50
2022-10-13T23:49:52.950Z,8.00
2022-10-13T23:52:30.179Z,7.30
2022-10-13T23:54:56.973Z,8.38
2022-10-13T23:57:24.634Z,9.48
2022-10-13T23:59:53.517Z,7.85
